PAFE

Details ICAO PAFE (AFE)
Name KAKE
Region USA (Alaska)
Timezone America/Juneau (UTC-9.0)
Plans Departing 11
Arriving 13
Stats Elevation 172 ft / 52 m (AMSL)
Location 56.961362° -133.910261°
Runways 1
Magnetic Variation 18.848° E
Sunrise 2017-12-17 17:31:08 UTC / 2017-12-17 08:31:08 Local
Sunset 2017-12-18 00:15:29 UTC / 2017-12-17 15:15:29 Local
Advertisement - Login to hide

Runways

ID Width Length Bearing (true) Bearing (mag) Surface Threshold Offset Overrun Length
10 100 ft / 30 m 3,990 ft / 1,216 m 129.93° 111.08° Asphalt 0 ft / 0 m 295 ft / 90 m
28 100 ft / 30 m 3,990 ft / 1,216 m 309.94° 291.09° Asphalt 1,000 ft / 305 m 295 ft / 90 m

Map

Weather


0- 5 10 15 20 25 30 35+ Temperature / ° C

Clouds and Precipitation
Forecast for 2017-12-18 06:00 UTC. Updated 2 hours ago

Ground ~20,000 ft ~40,000 ft Winds

METAR

PAFE 180656Z AUTO 09006KT 10SM BKN035 BKN070 02/01 A2978 RMK AO2 SLP098 T00170006 FZRANO

TAF

Not found

Frequencies

Recorded 135.25 MHz AWOS 3
Unicom 122.90 MHz CTAF
Warning: Do not use this data for real-world aviation or navigation. No guarantee of current accuracy is given.